Time;durP1;ratioP1;P1;durP2;ratioP2;P2;SDS_P1;SDS_P2;PMS_P1;PMS_P2;Temp;Humidity;BMP_temperature;BMP_pressure;BME280_temperature;BME280_humidity;BME280_pressure;Samples;Min_cycle;Max_cycle;Signal;HPM_P1;HPM_P2
2023/02/16 00:00:19;;;;;;;3.50;2.70;;;;;;;0.86;65.57;100832.48;105755;1257;69154;-67
2023/02/16 00:02:48;;;;;;;4.60;3.20;;;;;;;0.87;65.49;100828.35;105262;1257;74086;-73
2023/02/16 00:05:33;;;;;;;8.10;3.60;;;;;;;0.85;65.51;100832.02;105562;1262;61045;-72
2023/02/16 00:08:02;;;;;;;7.70;4.80;;;;;;;0.83;65.56;100830.15;105868;1256;61213;-71
2023/02/16 00:10:33;;;;;;;7.30;4.90;;;;;;;0.83;65.65;100829.06;105809;1258;75740;-69
2023/02/16 00:15:48;;;;;;;18.30;11.30;;;;;;;0.84;65.72;100828.95;104368;1260;1003084;-74
2023/02/16 00:18:18;;;;;;;16.40;10.50;;;;;;;0.84;65.69;100837.48;105688;1257;60885;-72
2023/02/16 00:20:47;;;;;;;20.00;11.90;;;;;;;0.82;65.75;100834.45;105700;1258;62172;-72
2023/02/16 00:23:15;;;;;;;19.10;12.80;;;;;;;0.82;66.05;100833.99;105790;1257;75176;-72
2023/02/16 00:25:44;;;;;;;17.10;10.90;;;;;;;0.79;65.99;100834.77;105361;1258;68774;-69
2023/02/16 00:28:16;;;;;;;9.00;6.20;;;;;;;0.74;66.32;100834.69;105788;1261;73964;-69
2023/02/16 00:30:45;;;;;;;7.70;5.40;;;;;;;0.68;66.49;100834.52;105808;1264;60495;-67
2023/02/16 00:33:19;;;;;;;4.80;3.80;;;;;;;0.65;66.60;100830.14;105047;1257;60851;-71
2023/02/16 00:35:47;;;;;;;6.50;3.70;;;;;;;0.65;66.63;100829.08;106196;1258;75663;-72
2023/02/16 00:38:16;;;;;;;3.90;3.40;;;;;;;0.65;66.84;100831.76;106043;1258;68430;-72
2023/02/16 00:40:44;;;;;;;9.40;4.30;;;;;;;0.61;67.04;100835.61;106334;1258;74637;-68
2023/02/16 00:43:31;;;;;;;7.60;3.80;;;;;;;0.59;67.22;100836.06;105222;1256;60489;-72
2023/02/16 00:45:59;;;;;;;4.50;3.00;;;;;;;0.56;67.48;100838.14;106239;1257;60365;-77
2023/02/16 00:48:27;;;;;;;5.70;4.00;;;;;;;0.55;67.72;100832.89;105696;1256;74294;-71
2023/02/16 00:50:55;;;;;;;7.40;3.90;;;;;;;0.55;67.58;100827.41;105934;1261;67447;-68
2023/02/16 00:53:24;;;;;;;8.90;5.10;;;;;;;0.56;67.71;100825.09;105234;1260;72374;-70
2023/02/16 00:55:52;;;;;;;10.20;5.00;;;;;;;0.53;67.89;100826.80;105660;1257;60512;-68
2023/02/16 00:58:25;;;;;;;6.30;5.40;;;;;;;0.50;68.17;100825.02;105306;1258;60493;-68
2023/02/16 01:00:59;;;;;;;4.70;4.00;;;;;;;0.47;68.22;100819.46;105322;1260;75377;-67
2023/02/16 01:03:28;;;;;;;5.70;4.00;;;;;;;0.45;68.29;100811.50;105381;1260;68100;-67
2023/02/16 01:11:33;;;;;;;13.50;8.20;;;;;;;0.49;68.61;100807.75;105465;1258;60562;-68
2023/02/16 01:14:05;;;;;;;13.60;8.30;;;;;;;0.48;68.76;100811.29;105334;1257;73571;-69
2023/02/16 01:16:38;;;;;;;17.30;9.60;;;;;;;0.44;68.88;100808.77;105189;1262;67656;-69
2023/02/16 01:19:06;;;;;;;15.30;10.50;;;;;;;0.41;68.98;100799.75;105278;1261;73525;-68
2023/02/16 01:21:34;;;;;;;14.20;10.80;;;;;;;0.41;69.04;100802.09;105425;1260;60486;-68
2023/02/16 01:24:03;;;;;;;13.20;11.20;;;;;;;0.41;69.09;100805.79;105245;1256;60946;-69
2023/02/16 01:26:33;;;;;;;16.20;10.70;;;;;;;0.41;69.12;100805.96;105298;1261;74737;-70
2023/02/16 01:29:02;;;;;;;15.60;10.70;;;;;;;0.41;69.23;100802.02;105253;1256;68071;-68
2023/02/16 01:31:32;;;;;;;11.70;8.20;;;;;;;0.44;69.33;100801.90;105281;1257;72526;-69
2023/02/16 01:34:03;;;;;;;13.30;7.80;;;;;;;0.46;69.31;100804.76;105330;1260;60575;-69
2023/02/16 01:36:43;;;;;;;11.80;8.00;;;;;;;0.44;69.44;100800.81;105270;1258;62143;-69
2023/02/16 01:39:13;;;;;;;10.90;6.60;;;;;;;0.41;69.44;100799.91;105404;1258;74522;-69
2023/02/16 01:41:50;;;;;;;11.80;8.80;;;;;;;0.39;69.67;100797.84;106076;1257;67277;-68
2023/02/16 01:44:28;;;;;;;13.60;10.40;;;;;;;0.39;69.71;100796.94;105499;1260;71181;-69
2023/02/16 01:47:16;;;;;;;12.60;9.10;;;;;;;0.38;69.71;100799.38;105313;1263;60470;-67
2023/02/16 01:49:44;;;;;;;13.70;9.20;;;;;;;0.38;70.03;100800.61;105300;1257;60474;-68
2023/02/16 01:52:33;;;;;;;11.90;6.60;;;;;;;0.38;69.99;100801.66;105591;1258;73814;-68
2023/02/16 01:55:23;;;;;;;7.40;5.50;;;;;;;0.37;70.25;100799.52;105070;1263;66454;-69
2023/02/16 01:58:03;;;;;;;6.60;5.10;;;;;;;0.36;70.21;100804.20;105457;1257;72289;-69
2023/02/16 02:00:50;;;;;;;7.70;5.40;;;;;;;0.34;70.41;100806.24;105361;1258;60371;-68
2023/02/16 02:06:09;;;;;;;8.20;5.00;;;;;;;0.35;70.84;100801.29;105813;1260;73646;-70
2023/02/16 02:08:59;;;;;;;8.80;5.70;;;;;;;0.35;70.92;100798.58;105802;1257;69056;-72
2023/02/16 02:11:49;;;;;;;10.60;6.30;;;;;;;0.36;70.90;100801.70;105730;1261;74119;-71
2023/02/16 02:14:24;;;;;;;8.80;5.10;;;;;;;0.36;71.07;100805.18;105772;1258;61081;-70
2023/02/16 02:17:05;;;;;;;9.20;5.50;;;;;;;0.36;70.96;100804.48;105634;1256;60325;-72
2023/02/16 02:20:06;;;;;;;8.00;5.30;;;;;;;0.35;71.03;100803.41;105733;1261;75006;-70
2023/02/16 02:25:50;;;;;;;9.10;6.30;;;;;;;0.32;71.08;100805.06;105765;1260;73220;-68
2023/02/16 02:28:37;;;;;;;9.80;5.80;;;;;;;0.32;71.31;100814.50;105369;1258;61743;-68
2023/02/16 02:31:11;;;;;;;7.80;3.80;;;;;;;0.31;71.31;100813.00;105458;1260;61103;-69
2023/02/16 02:33:40;;;;;;;9.70;4.10;;;;;;;0.28;71.32;100813.09;105310;1258;73589;-68
2023/02/16 02:36:26;;;;;;;5.20;4.00;;;;;;;0.27;71.54;100815.34;105148;1257;69199;-68
2023/02/16 02:39:13;;;;;;;6.90;4.00;;;;;;;0.26;71.60;100811.05;105225;1257;72425;-67
2023/02/16 02:42:10;;;;;;;8.70;4.30;;;;;;;0.25;71.72;100809.73;105624;1257;60455;-69
2023/02/16 02:45:00;;;;;;;6.80;3.80;;;;;;;0.24;71.88;100805.99;105622;1256;60387;-70
2023/02/16 02:47:37;;;;;;;7.80;4.90;;;;;;;0.24;71.89;100809.58;105657;1257;74748;-70
2023/02/16 02:50:33;;;;;;;8.40;4.50;;;;;;;0.24;71.81;100805.55;105260;1256;68946;-71
2023/02/16 02:53:05;;;;;;;8.90;5.30;;;;;;;0.26;71.90;100804.50;105453;1260;72062;-70
2023/02/16 03:01:09;;;;;;;12.40;8.30;;;;;;;0.26;72.13;100802.33;105609;1257;73466;-68
2023/02/16 03:03:49;;;;;;;18.00;11.20;;;;;;;0.25;72.45;100804.27;105288;1260;68889;-73
2023/02/16 03:06:26;;;;;;;18.90;11.20;;;;;;;0.24;72.72;100807.51;105701;1257;72753;-70
2023/02/16 03:09:01;;;;;;;23.10;12.80;;;;;;;0.23;72.81;100800.40;105687;1258;61386;-70
2023/02/16 03:14:32;;;;;;;24.70;16.70;;;;;;;0.22;73.08;100803.73;105371;1257;75155;-70
2023/02/16 03:31:23;;;;;;;23.10;13.70;;;;;;;0.37;72.92;100778.66;103577;1257;2621098;-70
2023/02/16 03:33:56;;;;;;;28.30;14.20;;;;;;;0.38;72.98;100779.08;105504;1256;73869;-71
2023/02/16 03:36:29;;;;;;;30.20;14.80;;;;;;;0.39;72.85;100777.92;105535;1257;60552;-70
2023/02/16 03:39:02;;;;;;;28.10;14.70;;;;;;;0.39;72.90;100777.36;105379;1256;60470;-70
2023/02/16 03:41:41;;;;;;;35.10;20.50;;;;;;;0.41;73.12;100775.80;105628;1257;74053;-70
2023/02/16 03:44:11;;;;;;;35.00;17.00;;;;;;;0.42;73.01;100777.06;105300;1263;68121;-70
2023/02/16 03:46:43;;;;;;;39.60;20.20;;;;;;;0.42;73.20;100777.60;105643;1260;73723;-70
2023/02/16 03:49:15;;;;;;;32.30;17.40;;;;;;;0.39;73.16;100772.30;105582;1256;61181;-72
2023/02/16 03:51:47;;;;;;;33.80;17.60;;;;;;;0.33;73.25;100775.71;105313;1262;60509;-71
2023/02/16 03:54:23;;;;;;;32.00;15.50;;;;;;;0.30;73.39;100775.88;105497;1256;74597;-71
2023/02/16 03:56:55;;;;;;;29.50;17.30;;;;;;;0.29;73.67;100772.81;103324;1261;1002986;-68
2023/02/16 03:59:29;;;;;;;30.00;14.20;;;;;;;0.28;73.71;100774.31;105547;1255;72832;-71
2023/02/16 04:02:01;;;;;;;25.10;13.50;;;;;;;0.28;73.88;100773.81;105611;1261;60432;-70
2023/02/16 04:04:33;;;;;;;22.40;11.60;;;;;;;0.28;73.99;100762.52;105521;1260;60563;-68
2023/02/16 04:07:04;;;;;;;21.70;12.50;;;;;;;0.27;74.12;100758.95;105487;1258;75003;-70
2023/02/16 04:09:34;;;;;;;24.30;13.80;;;;;;;0.27;74.13;100756.64;105609;1261;66270;-69
2023/02/16 04:14:54;;;;;;;29.30;15.30;;;;;;;0.30;74.17;100758.00;105469;1257;61300;-71
2023/02/16 04:17:23;;;;;;;32.30;14.90;;;;;;;0.33;74.04;100756.54;109237;1255;61875;-69
2023/02/16 04:19:51;;;;;;;24.20;14.70;;;;;;;0.39;74.39;100753.61;108948;1255;72911;-69
2023/02/16 04:22:20;;;;;;;27.60;15.30;;;;;;;0.47;74.12;100755.05;109151;1255;67827;-68
2023/02/16 04:24:48;;;;;;;28.90;16.60;;;;;;;0.50;74.04;100749.66;109261;1255;70968;-70
2023/02/16 04:27:16;;;;;;;27.70;15.60;;;;;;;0.50;73.74;100747.31;109147;1255;59805;-70
2023/02/16 04:29:44;;;;;;;25.70;13.10;;;;;;;0.48;73.58;100746.52;109196;1254;61596;-68
2023/02/16 04:32:12;;;;;;;20.20;12.40;;;;;;;0.47;73.51;100744.90;109340;1254;73011;-68
2023/02/16 04:34:40;;;;;;;15.00;9.80;;;;;;;0.49;73.61;100745.23;109145;1255;66865;-69
2023/02/16 04:37:09;;;;;;;14.70;10.10;;;;;;;0.52;73.52;100743.27;109189;1255;70950;-69
2023/02/16 04:39:37;;;;;;;16.80;10.40;;;;;;;0.54;73.33;100741.67;109225;1255;59730;-68
2023/02/16 04:42:05;;;;;;;22.70;12.60;;;;;;;0.56;73.14;100737.69;109179;1255;58171;-71
2023/02/16 04:44:38;;;;;;;22.90;11.30;;;;;;;0.58;73.15;100733.45;109296;1255;73588;-69
2023/02/16 04:47:06;;;;;;;16.20;10.80;;;;;;;0.58;73.25;100732.06;109161;1255;67010;-68
2023/02/16 04:49:34;;;;;;;17.40;10.00;;;;;;;0.55;73.02;100735.55;109070;1254;73221;-68
2023/02/16 04:52:03;;;;;;;23.30;12.40;;;;;;;0.56;72.63;100737.00;109268;1254;61660;-69
2023/02/16 04:54:32;;;;;;;18.90;10.50;;;;;;;0.59;72.70;100734.77;109170;1256;59139;-67
2023/02/16 04:57:00;;;;;;;18.70;11.20;;;;;;;0.61;72.51;100730.66;109259;1255;71809;-69
2023/02/16 04:59:29;;;;;;;15.40;9.70;;;;;;;0.62;72.37;100730.86;109088;1256;68687;-66
2023/02/16 05:01:57;;;;;;;19.20;11.00;;;;;;;0.63;72.48;100731.19;109232;1255;72280;-68
2023/02/16 05:04:25;;;;;;;18.10;10.30;;;;;;;0.64;72.36;100734.54;109196;1255;58093;-69
2023/02/16 05:06:53;;;;;;;16.50;10.30;;;;;;;0.66;72.18;100728.55;109179;1256;58931;-69
2023/02/16 05:09:21;;;;;;;15.80;9.10;;;;;;;0.65;71.99;100733.55;109107;1256;74685;-69
2023/02/16 05:14:45;;;;;;;18.00;10.00;;;;;;;0.66;71.45;100725.92;109209;1256;72513;-69
2023/02/16 05:17:21;;;;;;;12.10;8.00;;;;;;;0.64;71.59;100724.67;109213;1256;59493;-69
2023/02/16 05:19:56;;;;;;;14.30;8.40;;;;;;;0.61;71.44;100730.69;109255;1256;60291;-68
2023/02/16 05:22:24;;;;;;;14.80;9.50;;;;;;;0.57;71.73;100732.65;109236;1256;73517;-68
2023/02/16 05:24:52;;;;;;;11.40;7.90;;;;;;;0.54;71.57;100733.14;109246;1256;65938;-68
2023/02/16 05:27:25;;;;;;;10.80;6.70;;;;;;;0.53;71.51;100735.35;109195;1256;72820;-68
2023/02/16 05:29:53;;;;;;;11.20;6.10;;;;;;;0.53;71.53;100731.19;109048;1256;59247;-71
2023/02/16 05:32:21;;;;;;;10.00;5.70;;;;;;;0.52;71.44;100731.95;109205;1256;59309;-68
2023/02/16 05:34:50;;;;;;;12.90;6.80;;;;;;;0.52;71.71;100729.30;109213;1257;71753;-68
2023/02/16 05:37:18;;;;;;;24.90;7.40;;;;;;;0.51;71.84;100728.04;109167;1256;67249;-68
2023/02/16 05:39:47;;;;;;;11.80;7.10;;;;;;;0.50;71.87;100727.40;109135;1256;72874;-68
2023/02/16 05:42:15;;;;;;;17.90;7.50;;;;;;;0.50;71.77;100728.45;109189;1256;58711;-69
2023/02/16 05:44:43;;;;;;;10.00;7.50;;;;;;;0.48;71.93;100729.81;109187;1256;59448;-68
2023/02/16 05:47:11;;;;;;;11.50;6.20;;;;;;;0.48;72.13;100730.96;109187;1256;72952;-68
2023/02/16 05:49:39;;;;;;;9.90;6.90;;;;;;;0.49;72.02;100731.75;109220;1256;67385;-70
2023/02/16 05:52:08;;;;;;;14.10;9.90;;;;;;;0.48;72.19;100731.53;109218;1256;72615;-68
2023/02/16 05:54:36;;;;;;;11.90;7.10;;;;;;;0.52;72.31;100731.25;109099;1256;60493;-68
2023/02/16 05:57:05;;;;;;;14.30;7.10;;;;;;;0.57;72.49;100735.37;109230;1256;59433;-69
2023/02/16 05:59:33;;;;;;;32.70;18.50;;;;;;;0.61;72.50;100732.94;109192;1257;72193;-68
2023/02/16 06:02:01;;;;;;;24.80;13.50;;;;;;;0.63;72.60;100726.59;109238;1256;65899;-68
2023/02/16 06:04:31;;;;;;;20.80;12.40;;;;;;;0.63;72.63;100728.27;109132;1256;72359;-71
2023/02/16 06:06:59;;;;;;;18.20;11.90;;;;;;;0.64;72.89;100725.40;109156;1256;58141;-68
2023/02/16 06:09:27;;;;;;;22.40;14.40;;;;;;;0.65;73.00;100727.92;109205;1256;59161;-68
2023/02/16 06:11:56;;;;;;;18.60;12.70;;;;;;;0.66;73.21;100729.92;109169;1256;72527;-67
2023/02/16 06:14:24;;;;;;;17.70;12.00;;;;;;;0.67;72.98;100731.19;109110;1256;66263;-69
2023/02/16 06:16:55;;;;;;;25.40;16.10;;;;;;;0.68;73.11;100728.13;108972;1257;71703;-69
2023/02/16 06:19:24;;;;;;;33.30;14.30;;;;;;;0.69;73.28;100725.16;109082;1257;58314;-68
2023/02/16 06:21:52;;;;;;;19.60;12.60;;;;;;;0.71;73.50;100726.27;109091;1257;59816;-69
2023/02/16 06:24:20;;;;;;;15.50;11.20;;;;;;;0.72;73.69;100725.56;109080;1257;72434;-68
2023/02/16 06:26:49;;;;;;;20.20;10.90;;;;;;;0.75;73.87;100724.41;109106;1257;66311;-67
2023/02/16 06:29:17;;;;;;;13.30;9.20;;;;;;;0.79;73.96;100725.48;109083;1257;72066;-68
2023/02/16 06:31:45;;;;;;;16.20;10.50;;;;;;;0.85;73.87;100728.45;109066;1257;58639;-67
2023/02/16 06:34:13;;;;;;;14.80;9.10;;;;;;;0.81;74.02;100726.39;109088;1257;58146;-68
2023/02/16 06:36:42;;;;;;;15.40;9.80;;;;;;;0.81;73.97;100726.45;109079;1257;73217;-67
2023/02/16 06:39:10;;;;;;;16.60;10.40;;;;;;;0.82;74.18;100719.20;109102;1257;67386;-68
2023/02/16 06:41:41;;;;;;;13.00;7.90;;;;;;;0.81;74.22;100715.67;109081;1257;71414;-68
2023/02/16 06:44:14;;;;;;;11.80;8.70;;;;;;;0.81;74.50;100714.17;109085;1257;58215;-67
2023/02/16 06:46:44;;;;;;;18.80;10.80;;;;;;;0.85;74.58;100715.02;109069;1257;59387;-69
2023/02/16 06:49:14;;;;;;;21.00;10.60;;;;;;;0.84;74.46;100713.32;109053;1258;74192;-68
2023/02/16 06:51:42;;;;;;;14.50;9.70;;;;;;;0.84;74.61;100714.95;109081;1257;66855;-69
2023/02/16 06:54:11;;;;;;;18.10;9.20;;;;;;;0.84;74.81;100716.20;109074;1257;72982;-68
2023/02/16 06:56:39;;;;;;;17.00;10.30;;;;;;;0.86;75.14;100713.72;109041;1257;58850;-67
2023/02/16 06:59:08;;;;;;;14.40;9.60;;;;;;;0.88;75.19;100712.92;109108;1257;59116;-68
2023/02/16 07:01:37;;;;;;;20.40;9.70;;;;;;;0.87;75.08;100709.54;109055;1257;72910;-68
2023/02/16 07:04:05;;;;;;;16.20;10.60;;;;;;;0.89;75.19;100707.67;109081;1258;65816;-68
2023/02/16 07:06:33;;;;;;;17.60;11.50;;;;;;;0.95;75.27;100706.95;109063;1257;72493;-70
2023/02/16 07:09:01;;;;;;;16.00;11.50;;;;;;;0.98;75.35;100702.16;109087;1257;58142;-69
2023/02/16 07:11:30;;;;;;;18.00;10.30;;;;;;;1.05;75.39;100697.70;109023;1258;59579;-69
2023/02/16 07:14:04;;;;;;;18.70;10.60;;;;;;;1.15;75.35;100699.83;109059;1258;74233;-69
2023/02/16 07:16:33;;;;;;;18.30;10.00;;;;;;;1.21;75.13;100691.68;109069;1257;68093;-68
2023/02/16 07:19:01;;;;;;;15.60;9.60;;;;;;;1.26;75.08;100693.67;109072;1257;72541;-68
2023/02/16 07:21:30;;;;;;;14.70;8.70;;;;;;;1.31;75.00;100695.40;108963;1259;58712;-70
2023/02/16 07:23:59;;;;;;;14.80;9.30;;;;;;;1.37;74.94;100694.43;109005;1257;58308;-68
2023/02/16 07:26:37;;;;;;;15.80;9.30;;;;;;;1.42;74.82;100697.05;108953;1257;73580;-67
2023/02/16 07:29:18;;;;;;;17.20;11.60;;;;;;;1.42;74.59;100696.39;109034;1258;65909;-69
2023/02/16 07:31:50;;;;;;;18.10;11.90;;;;;;;1.38;74.56;100692.20;109087;1258;72663;-69
2023/02/16 07:34:25;;;;;;;21.30;12.30;;;;;;;1.39;74.87;100689.31;109044;1258;60557;-67
2023/02/16 07:36:57;;;;;;;25.70;13.60;;;;;;;1.39;75.02;100686.33;109050;1257;60260;-68
2023/02/16 07:39:28;;;;;;;24.10;14.20;;;;;;;1.41;74.94;100683.90;109098;1258;74051;-68
2023/02/16 07:41:56;;;;;;;22.80;11.60;;;;;;;1.45;75.01;100677.97;105286;1258;1002854;-67
2023/02/16 07:44:26;;;;;;;23.20;14.70;;;;;;;1.46;74.77;100675.59;109043;1259;73671;-68
2023/02/16 07:46:55;;;;;;;24.70;14.80;;;;;;;1.47;74.86;100670.91;109043;1258;60810;-67
2023/02/16 07:49:25;;;;;;;22.10;13.30;;;;;;;1.52;74.95;100671.34;108967;1259;60323;-69
2023/02/16 07:51:57;;;;;;;25.60;13.80;;;;;;;1.57;74.78;100672.36;108985;1258;74203;-68
2023/02/16 07:54:27;;;;;;;20.70;13.80;;;;;;;1.59;74.77;100668.70;109033;1259;68209;-69
2023/02/16 07:57:00;;;;;;;21.90;12.80;;;;;;;1.58;74.88;100670.17;109014;1259;72368;-69
2023/02/16 07:59:38;;;;;;;22.20;13.70;;;;;;;1.63;74.94;100670.66;109006;1258;59702;-68
2023/02/16 08:02:16;;;;;;;27.20;15.00;;;;;;;1.66;74.83;100670.40;109074;1259;59304;-68
2023/02/16 08:04:47;;;;;;;25.70;14.50;;;;;;;1.66;74.86;100667.55;109004;1259;73792;-67
2023/02/16 08:07:16;;;;;;;18.80;13.10;;;;;;;1.72;74.81;100663.98;109012;1259;67372;-67
2023/02/16 08:09:44;;;;;;;23.90;12.30;;;;;;;1.80;74.86;100664.20;109014;1259;72322;-68
2023/02/16 08:12:12;;;;;;;15.80;11.40;;;;;;;1.85;74.63;100661.73;108970;1259;59025;-68
2023/02/16 08:14:41;;;;;;;23.40;13.90;;;;;;;1.92;74.60;100661.80;109016;1259;58126;-69
2023/02/16 08:17:10;;;;;;;23.60;13.60;;;;;;;1.96;74.36;100658.76;108955;1259;73031;-70
2023/02/16 08:19:39;;;;;;;18.40;10.60;;;;;;;1.99;74.17;100660.64;109012;1259;68125;-69
2023/02/16 08:22:07;;;;;;;16.00;10.20;;;;;;;2.03;73.94;100656.31;109052;1259;71763;-68
2023/02/16 08:24:36;;;;;;;19.20;11.60;;;;;;;2.07;73.95;100655.54;108927;1259;59257;-69
2023/02/16 08:27:04;;;;;;;16.80;11.10;;;;;;;2.12;73.76;100652.79;109012;1259;59540;-69
2023/02/16 08:29:34;;;;;;;17.20;11.60;;;;;;;2.14;73.74;100648.55;108998;1259;72210;-68
2023/02/16 08:32:06;;;;;;;27.70;12.50;;;;;;;2.13;73.91;100648.15;108995;1259;66674;-69
2023/02/16 08:34:35;;;;;;;16.80;10.00;;;;;;;2.19;73.73;100649.58;108973;1259;71468;-69
2023/02/16 08:37:03;;;;;;;15.40;11.60;;;;;;;2.27;73.42;100649.38;108971;1261;58116;-70
2023/02/16 08:39:31;;;;;;;19.70;12.40;;;;;;;2.31;73.24;100647.41;108985;1259;59108;-67
2023/02/16 08:42:00;;;;;;;21.20;13.10;;;;;;;2.30;73.07;100647.62;108929;1259;73072;-70
2023/02/16 08:44:29;;;;;;;16.00;11.80;;;;;;;2.30;73.00;100645.88;109022;1259;67921;-70
2023/02/16 08:46:59;;;;;;;26.90;14.20;;;;;;;2.32;73.09;100649.94;108971;1259;72967;-70
2023/02/16 08:49:27;;;;;;;18.40;11.60;;;;;;;2.35;73.03;100648.90;108912;1259;59838;-69
2023/02/16 08:51:56;;;;;;;22.20;13.20;;;;;;;2.36;72.99;100649.04;108999;1259;58177;-69
2023/02/16 08:54:29;;;;;;;26.70;13.60;;;;;;;2.30;73.39;100650.23;109006;1259;72016;-69
2023/02/16 08:56:58;;;;;;;24.80;15.10;;;;;;;2.27;73.31;100649.55;108998;1259;67269;-68
2023/02/16 08:59:26;;;;;;;21.40;14.10;;;;;;;2.27;73.49;100650.41;108993;1259;72075;-68
2023/02/16 09:01:56;;;;;;;37.30;15.90;;;;;;;2.29;73.52;100651.61;108963;1260;58708;-67
2023/02/16 09:04:27;;;;;;;27.60;14.00;;;;;;;2.33;73.51;100644.05;108941;1260;59319;-69
2023/02/16 09:06:57;;;;;;;26.00;15.70;;;;;;;2.38;73.33;100645.82;108987;1260;74807;-71
2023/02/16 09:09:26;;;;;;;22.70;12.90;;;;;;;2.32;73.36;100636.19;108873;1260;68151;-72
2023/02/16 09:11:57;;;;;;;27.20;15.10;;;;;;;2.33;73.41;100634.86;108904;1261;73308;-69
2023/02/16 09:14:26;;;;;;;28.90;16.90;;;;;;;2.38;73.49;100635.34;108970;1261;60760;-69
2023/02/16 09:16:56;;;;;;;30.20;16.00;;;;;;;2.40;73.35;100625.28;109040;1259;60223;-70
2023/02/16 09:19:27;;;;;;;23.20;13.70;;;;;;;2.40;73.85;100625.84;109013;1259;72582;-69
2023/02/16 09:21:55;;;;;;;21.50;14.00;;;;;;;2.40;73.98;100623.61;109010;1259;67064;-69
2023/02/16 09:24:26;;;;;;;23.60;14.80;;;;;;;2.44;73.85;100621.80;108993;1259;71673;-72
2023/02/16 09:27:11;;;;;;;23.20;15.60;;;;;;;2.47;73.85;100616.70;109024;1259;59632;-71
2023/02/16 09:29:42;;;;;;;19.00;14.20;;;;;;;2.45;73.78;100618.39;108939;1259;58858;-73
2023/02/16 09:32:10;;;;;;;21.10;14.00;;;;;;;2.45;73.82;100614.35;108900;1259;73299;-72
2023/02/16 09:34:39;;;;;;;24.40;14.70;;;;;;;2.48;73.80;100619.77;108928;1258;67829;-72
2023/02/16 09:37:07;;;;;;;21.50;14.60;;;;;;;2.49;73.94;100616.09;108968;1259;72917;-77
2023/02/16 09:39:35;;;;;;;27.10;14.90;;;;;;;2.55;73.88;100611.84;108918;1259;58308;-70
2023/02/16 09:42:23;;;;;;;21.20;14.40;;;;;;;2.61;73.91;100611.07;108953;1259;58570;-72
2023/02/16 09:45:01;;;;;;;21.80;15.70;;;;;;;2.68;73.65;100609.96;108983;1259;73929;-72
2023/02/16 09:47:32;;;;;;;26.80;17.50;;;;;;;2.70;73.22;100607.75;109009;1259;67506;-72
2023/02/16 09:50:12;;;;;;;25.90;14.60;;;;;;;2.74;73.26;100601.16;105875;1259;1002942;-71
2023/02/16 09:53:21;;;;;;;22.50;14.30;;;;;;;2.78;72.84;100596.98;108888;1259;58155;-71
2023/02/16 09:56:04;;;;;;;25.80;16.60;;;;;;;2.82;72.48;100598.48;109030;1259;59081;-72
2023/02/16 09:58:55;;;;;;;22.60;15.20;;;;;;;2.81;72.35;100596.95;108967;1259;73434;-70
2023/02/16 10:01:44;;;;;;;20.90;14.90;;;;;;;2.86;72.38;100599.04;109022;1259;66320;-69
2023/02/16 10:04:34;;;;;;;26.00;15.90;;;;;;;2.92;71.96;100598.14;108932;1259;72671;-71
2023/02/16 10:07:25;;;;;;;21.10;14.40;;;;;;;3.00;71.72;100593.12;108910;1259;59386;-70
2023/02/16 10:09:54;;;;;;;31.20;17.00;;;;;;;3.04;71.18;100590.30;108907;1259;58741;-72
2023/02/16 10:12:25;;;;;;;24.40;15.30;;;;;;;3.05;71.29;100582.09;108866;1259;73938;-71
2023/02/16 10:15:01;;;;;;;24.80;15.50;;;;;;;3.09;71.29;100583.18;108903;1259;69228;-70
2023/02/16 10:17:33;;;;;;;23.50;14.90;;;;;;;3.15;70.92;100577.26;108944;1259;71839;-69
2023/02/16 10:20:32;;;;;;;24.80;15.50;;;;;;;3.17;70.53;100574.98;108951;1259;58579;-72
2023/02/16 10:23:38;;;;;;;20.90;13.70;;;;;;;3.19;70.35;100574.02;109011;1259;58576;-69
2023/02/16 10:30:16;;;;;;;19.80;13.50;;;;;;;3.37;69.48;100563.05;109033;1259;66766;-69
2023/02/16 10:32:53;;;;;;;18.10;12.50;;;;;;;3.39;69.19;100559.20;109005;1259;72909;-70
2023/02/16 10:35:28;;;;;;;23.20;13.70;;;;;;;3.44;68.97;100556.20;108986;1262;58595;-71
2023/02/16 10:38:06;;;;;;;20.60;13.10;;;;;;;3.48;68.78;100553.18;108992;1259;61590;-71
2023/02/16 10:41:04;;;;;;;22.90;14.50;;;;;;;3.54;68.40;100550.70;109005;1259;74988;-72
2023/02/16 10:43:50;;;;;;;18.40;12.50;;;;;;;3.49;67.71;100544.88;109015;1259;68417;-73
2023/02/16 10:46:24;;;;;;;28.30;15.00;;;;;;;3.44;67.98;100540.05;108915;1259;71224;-72
2023/02/16 10:49:48;;;;;;;21.00;14.40;;;;;;;3.45;68.20;100545.58;108888;1259;58208;-73
2023/02/16 10:52:16;;;;;;;20.20;15.20;;;;;;;3.54;67.94;100538.86;108934;1259;60004;-72
2023/02/16 10:54:45;;;;;;;26.00;16.60;;;;;;;3.58;67.70;100534.07;108914;1259;74028;-70
2023/02/16 10:57:24;;;;;;;22.60;14.80;;;;;;;3.61;67.57;100527.83;108889;1259;67320;-69
2023/02/16 10:59:53;;;;;;;21.80;14.60;;;;;;;3.64;67.68;100526.83;108928;1259;73803;-69
2023/02/16 11:02:51;;;;;;;26.20;14.60;;;;;;;3.66;67.66;100523.85;108935;1260;58735;-69
2023/02/16 11:05:37;;;;;;;20.60;13.50;;;;;;;3.67;67.50;100519.20;108879;1260;60416;-69
2023/02/16 11:08:10;;;;;;;24.70;14.40;;;;;;;3.69;67.47;100518.65;108814;1260;72255;-71
2023/02/16 11:10:49;;;;;;;22.30;13.00;;;;;;;3.68;67.17;100520.48;108866;1261;68014;-69
2023/02/16 11:13:30;;;;;;;22.70;13.30;;;;;;;3.70;67.01;100514.41;108931;1261;72645;-71
2023/02/16 11:16:12;;;;;;;21.20;12.60;;;;;;;3.72;67.03;100510.36;108869;1260;58577;-70
2023/02/16 11:18:54;;;;;;;20.30;11.60;;;;;;;3.75;67.13;100503.33;108837;1261;58892;-75
2023/02/16 11:21:49;;;;;;;20.10;12.80;;;;;;;3.73;67.24;100503.38;108825;1261;73864;-73
2023/02/16 11:24:30;;;;;;;22.00;12.30;;;;;;;3.72;67.27;100497.75;108923;1261;67932;-73
2023/02/16 11:27:22;;;;;;;22.60;10.80;;;;;;;3.73;67.02;100490.40;108891;1261;72821;-71
2023/02/16 11:30:21;;;;;;;17.80;13.10;;;;;;;3.71;67.13;100483.94;108805;1260;60774;-70
2023/02/16 11:32:52;;;;;;;18.50;11.80;;;;;;;3.67;67.21;100478.50;108839;1260;58932;-71
2023/02/16 11:35:24;;;;;;;16.40;10.90;;;;;;;3.66;67.67;100476.55;108868;1260;74436;-73
2023/02/16 11:37:55;;;;;;;22.00;12.40;;;;;;;3.68;67.70;100475.77;108854;1262;68951;-72
2023/02/16 11:40:29;;;;;;;13.80;9.80;;;;;;;3.70;67.18;100471.27;108985;1260;72142;-71
2023/02/16 11:43:01;;;;;;;18.30;9.90;;;;;;;3.74;67.06;100468.70;108897;1260;58162;-78
2023/02/16 11:45:35;;;;;;;14.50;9.80;;;;;;;3.80;66.91;100464.20;108881;1259;59119;-77
2023/02/16 11:48:11;;;;;;;19.50;11.30;;;;;;;3.86;66.55;100455.70;108892;1259;74656;-77
2023/02/16 11:51:14;;;;;;;12.90;9.50;;;;;;;3.87;66.16;100454.45;108886;1259;66352;-71
2023/02/16 11:53:46;;;;;;;12.90;8.80;;;;;;;3.85;65.95;100449.35;108800;1259;73940;-75
2023/02/16 11:56:26;;;;;;;16.00;10.40;;;;;;;3.83;65.89;100440.33;108877;1259;60745;-68
2023/02/16 12:10:21;;;;;;;18.00;10.10;;;;;;;3.98;65.57;100420.67;102447;1297;600340;-70
2023/02/16 12:13:14;;;;;;;15.00;8.90;;;;;;;3.99;65.23;100414.20;104884;1273;59832;-69
2023/02/16 12:15:45;;;;;;;17.30;10.30;;;;;;;4.00;64.93;100403.89;104920;1269;60529;-68
2023/02/16 12:18:26;;;;;;;15.00;10.00;;;;;;;3.98;64.80;100402.94;104213;1273;72519;-70
2023/02/16 12:21:14;;;;;;;14.70;9.90;;;;;;;3.95;65.08;100402.66;104348;1282;68975;-70
2023/02/16 12:24:11;;;;;;;16.00;10.10;;;;;;;3.95;64.90;100395.95;104353;1272;614968;-69
2023/02/16 12:26:47;;;;;;;11.60;8.30;;;;;;;3.94;65.12;100390.91;104481;1272;59940;-68
2023/02/16 12:29:37;;;;;;;17.50;11.60;;;;;;;3.92;65.30;100387.53;104419;1268;61230;-71
2023/02/16 12:32:37;;;;;;;17.90;10.90;;;;;;;3.89;65.59;100385.00;105572;1269;74138;-72
2023/02/16 12:35:14;;;;;;;14.70;9.60;;;;;;;3.89;65.67;100390.90;105574;1257;68004;-71
2023/02/16 12:38:13;;;;;;;17.00;11.80;;;;;;;3.91;65.45;100388.86;105642;1257;73639;-74
2023/02/16 12:41:03;;;;;;;17.60;9.60;;;;;;;3.93;65.43;100379.31;105795;1262;59872;-76